Time;durP1;ratioP1;P1;durP2;ratioP2;P2;SDS_P1;SDS_P2;PMS_P1;PMS_P2;Temp;Humidity;BMP_temperature;BMP_pressure;BME280_temperature;BME280_humidity;BME280_pressure;Samples;Min_cycle;Max_cycle;Signal;HPM_P1;HPM_P2
2021/05/22 00:00:21;;;;;;;;;;;;;;;;;;5009686;28;20052;-72
2021/05/22 00:02:47;;;;;;;4.80;0.95;;;;;;;;;;5009956;28;19967;-70
2021/05/22 00:05:13;;;;;;;2.15;0.82;;;;;;;;;;5009902;28;20038;-72
2021/05/22 00:07:39;;;;;;;7.35;0.95;;;;;;;;;;5010832;28;20056;-71
2021/05/22 00:10:10;;;;;;;2.50;1.02;;;;;;;;;;5011377;28;20039;-71
2021/05/22 00:12:36;;;;;;;2.95;0.80;;;;;;;;;;5019902;28;20482;-71
2021/05/22 00:15:02;;;;;;;7.55;2.25;;;;;;;;;;5012610;28;20042;-71
2021/05/22 00:17:28;;;;;;;6.55;0.80;;;;;;;;;;5012428;28;20053;-72
2021/05/22 00:19:54;;;;;;;;;;;;;;;;;;5013641;28;20046;-72
2021/05/22 00:22:20;;;;;;;4.80;1.38;;;;;;;;;;5013599;28;20025;-72
2021/05/22 00:24:47;;;;;;;11.52;2.15;;;;;;;;;;5019993;28;20041;-72
2021/05/22 00:27:12;;;;;;;;;;;;;;;;;;5025312;28;20519;-71
2021/05/22 00:29:39;;;;;;;6.47;0.95;;;;;;;;;;5033390;28;20557;-71
2021/05/22 00:32:05;;;;;;;4.57;1.10;;;;;;;;;;5029590;28;20072;-71
2021/05/22 00:34:31;;;;;;;8.00;2.22;;;;;;;;;;5012918;28;20045;-72
2021/05/22 00:36:57;;;;;;;;;;;;;;;;;;5013668;28;20046;-72
2021/05/22 00:39:23;;;;;;;5.53;1.25;;;;;;;;;;5017818;28;19932;-71
2021/05/22 00:41:49;;;;;;;5.00;1.20;;;;;;;;;;5026196;28;20038;-72
2021/05/22 00:44:15;;;;;;;;;;;;;;;;;;5013562;28;20037;-72
2021/05/22 00:46:41;;;;;;;12.63;1.48;;;;;;;;;;5012777;28;19917;-72
2021/05/22 00:49:07;;;;;;;;;;;;;;;;;;5014106;28;20470;-70
2021/05/22 00:51:33;;;;;;;6.40;1.33;;;;;;;;;;5012973;28;20005;-70
2021/05/22 00:53:59;;;;;;;;;;;;;;;;;;5012788;28;20033;-71
2021/05/22 00:56:25;;;;;;;8.13;1.37;;;;;;;;;;5013350;28;19964;-71
2021/05/22 00:58:51;;;;;;;4.40;1.13;;;;;;;;;;5012718;28;20038;-70
2021/05/22 01:01:17;;;;;;;;;;;;;;;;;;5013207;28;20041;-71
2021/05/22 01:03:45;;;;;;;9.60;1.23;;;;;;;;;;5012623;28;19917;-70
2021/05/22 01:06:23;;;;;;;7.15;1.25;;;;;;;;;;5012664;28;20053;-70
2021/05/22 01:08:54;;;;;;;4.13;1.83;;;;;;;;;;5012195;28;20125;-71
2021/05/22 01:11:31;;;;;;;5.65;1.90;;;;;;;;;;5016312;28;20088;-70
2021/05/22 01:14:03;;;;;;;7.30;1.17;;;;;;;;;;5033268;28;20095;-71
2021/05/22 01:16:31;;;;;;;8.68;1.17;;;;;;;;;;5030803;28;20037;-71
2021/05/22 01:18:58;;;;;;;7.30;1.50;;;;;;;;;;5031956;28;20037;-71
2021/05/22 01:21:24;;;;;;;7.18;1.10;;;;;;;;;;5032068;28;20041;-71
2021/05/22 01:24:06;;;;;;;9.15;1.10;;;;;;;;;;5032510;28;20036;-71
2021/05/22 01:26:32;;;;;;;5.90;1.40;;;;;;;;;;5032118;28;20045;-71
2021/05/22 01:28:59;;;;;;;3.35;1.00;;;;;;;;;;5032287;28;20041;-72
2021/05/22 01:31:25;;;;;;;6.32;1.33;;;;;;;;;;5030865;28;20055;-72
2021/05/22 01:33:52;;;;;;;5.93;1.50;;;;;;;;;;5013776;28;20038;-71
2021/05/22 01:36:18;;;;;;;3.65;0.88;;;;;;;;;;5011476;28;20045;-72
2021/05/22 01:38:44;;;;;;;10.20;1.58;;;;;;;;;;5013393;28;20050;-71
2021/05/22 01:41:10;;;;;;;3.70;1.10;;;;;;;;;;5020880;28;20117;-71
2021/05/22 01:43:38;;;;;;;4.57;1.13;;;;;;;;;;5012957;28;20109;-73
2021/05/22 01:46:05;;;;;;;6.95;1.05;;;;;;;;;;5011675;28;20052;-72
2021/05/22 01:48:31;;;;;;;4.05;1.27;;;;;;;;;;5011717;28;20076;-71
2021/05/22 01:50:59;;;;;;;3.13;0.80;;;;;;;;;;5011254;28;20045;-72
2021/05/22 01:53:26;;;;;;;9.23;1.17;;;;;;;;;;5011922;28;20048;-72
2021/05/22 01:55:53;;;;;;;6.95;1.35;;;;;;;;;;5011762;28;20045;-71
2021/05/22 01:58:19;;;;;;;3.20;1.00;;;;;;;;;;5011309;28;20088;-71
2021/05/22 02:00:45;;;;;;;11.27;2.05;;;;;;;;;;5010581;28;20485;-71
2021/05/22 02:03:15;;;;;;;6.65;1.70;;;;;;;;;;5012768;28;20045;-71
2021/05/22 02:05:41;;;;;;;8.80;1.10;;;;;;;;;;5011556;28;20044;-72
2021/05/22 02:08:10;;;;;;;6.85;1.33;;;;;;;;;;5011411;28;20088;-71
2021/05/22 02:10:36;;;;;;;11.35;1.33;;;;;;;;;;5011528;28;20077;-71
2021/05/22 02:13:03;;;;;;;7.45;1.30;;;;;;;;;;5021355;28;20041;-72
2021/05/22 02:15:31;;;;;;;4.82;0.93;;;;;;;;;;5011300;28;20034;-71
2021/05/22 02:17:58;;;;;;;6.65;1.13;;;;;;;;;;5011534;28;20525;-70
2021/05/22 02:20:25;;;;;;;10.68;1.95;;;;;;;;;;5013335;28;20044;-72
2021/05/22 02:22:53;;;;;;;6.57;1.40;;;;;;;;;;5012180;28;20065;-71
2021/05/22 02:25:20;;;;;;;4.22;1.20;;;;;;;;;;5007263;28;20116;-72
2021/05/22 02:27:46;;;;;;;7.13;1.67;;;;;;;;;;5011238;28;20204;-72
2021/05/22 02:30:13;;;;;;;11.15;1.80;;;;;;;;;;5003392;28;20034;-71
2021/05/22 02:32:40;;;;;;;8.45;1.38;;;;;;;;;;5011908;28;20065;-71
2021/05/22 02:35:08;;;;;;;11.85;2.03;;;;;;;;;;5010310;28;20034;-72
2021/05/22 02:37:35;;;;;;;4.72;1.27;;;;;;;;;;5011642;28;20049;-72
2021/05/22 02:40:05;;;;;;;4.80;1.42;;;;;;;;;;5020551;28;20041;-71
2021/05/22 02:42:32;;;;;;;6.85;2.55;;;;;;;;;;5017402;28;20048;-71
2021/05/22 02:44:59;;;;;;;6.25;1.25;;;;;;;;;;5010602;28;20398;-71
2021/05/22 02:47:28;;;;;;;8.57;1.63;;;;;;;;;;5011542;28;20052;-72
2021/05/22 02:49:59;;;;;;;6.35;1.60;;;;;;;;;;5010606;28;20044;-72
2021/05/22 02:52:27;;;;;;;9.07;1.50;;;;;;;;;;5010493;28;20084;-72
2021/05/22 02:54:54;;;;;;;5.72;1.48;;;;;;;;;;5010402;28;20490;-71
2021/05/22 02:57:20;;;;;;;6.72;1.50;;;;;;;;;;5005834;28;20045;-71
2021/05/22 02:59:46;;;;;;;;;;;;;;;;;;5010658;28;20046;-72
2021/05/22 03:02:12;;;;;;;8.30;1.65;;;;;;;;;;5009230;28;19924;-71
2021/05/22 03:04:40;;;;;;;6.28;1.10;;;;;;;;;;5010588;28;20049;-71
2021/05/22 03:07:06;;;;;;;4.35;1.40;;;;;;;;;;5010754;28;20046;-71
2021/05/22 03:09:32;;;;;;;;;;;;;;;;;;5010638;28;20046;-72
2021/05/22 03:11:58;;;;;;;11.48;2.08;;;;;;;;;;5009911;28;20326;-71
2021/05/22 03:14:25;;;;;;;8.93;1.83;;;;;;;;;;5010189;28;20042;-72
2021/05/22 03:16:51;;;;;;;6.80;1.40;;;;;;;;;;5009577;28;20046;-72
2021/05/22 03:19:17;;;;;;;;;;;;;;;;;;5011907;28;20034;-71
2021/05/22 03:21:43;;;;;;;8.98;2.00;;;;;;;;;;5001938;28;20306;-72
2021/05/22 03:24:12;;;;;;;6.93;1.90;;;;;;;;;;5024303;28;20047;-71
2021/05/22 03:26:38;;;;;;;7.68;1.90;;;;;;;;;;5010276;28;20112;-72
2021/05/22 03:29:04;;;;;;;;;;;;;;;;;;5010621;28;20077;-72
2021/05/22 03:31:30;;;;;;;15.85;1.83;;;;;;;;;;5006528;28;19924;-71
2021/05/22 03:33:56;;;;;;;10.05;1.67;;;;;;;;;;5024625;28;20042;-72
2021/05/22 03:36:22;;;;;;;9.43;1.80;;;;;;;;;;5009402;28;20040;-71
2021/05/22 03:38:49;;;;;;;;;;;;;;;;;;5007358;28;20153;-72
2021/05/22 03:41:15;;;;;;;7.18;1.40;;;;;;;;;;5034314;28;19933;-72
2021/05/22 03:43:41;;;;;;;10.48;1.77;;;;;;;;;;5011258;28;20046;-71
2021/05/22 03:46:07;;;;;;;;;;;;;;;;;;5013164;28;20058;-72
2021/05/22 03:48:33;;;;;;;13.00;1.95;;;;;;;;;;5014236;28;19952;-71
2021/05/22 03:50:59;;;;;;;13.25;1.60;;;;;;;;;;5014369;28;20055;-70
2021/05/22 03:53:25;;;;;;;;;;;;;;;;;;5014398;28;20483;-71
2021/05/22 03:55:51;;;;;;;8.48;2.10;;;;;;;;;;5008010;28;19922;-71
2021/05/22 03:58:17;;;;;;;;;;;;;;;;;;5014003;28;20096;-71
2021/05/22 04:00:45;;;;;;;10.00;1.40;;;;;;;;;;5013314;28;19917;-71
2021/05/22 04:03:11;;;;;;;11.43;2.03;;;;;;;;;;5013345;28;20057;-71
2021/05/22 04:05:37;;;;;;;8.65;1.45;;;;;;;;;;5012676;28;20050;-71
2021/05/22 04:08:04;;;;;;;11.75;1.92;;;;;;;;;;5014273;28;20050;-72
2021/05/22 04:10:30;;;;;;;9.90;1.92;;;;;;;;;;5022292;28;20041;-70
2021/05/22 04:12:56;;;;;;;7.70;1.60;;;;;;;;;;5030631;28;20045;-72
2021/05/22 04:15:22;;;;;;;8.18;1.38;;;;;;;;;;5025085;28;20034;-72
2021/05/22 04:17:48;;;;;;;;;;;;;;;;;;5015194;28;20050;-70
2021/05/22 04:20:15;;;;;;;12.73;1.95;;;;;;;;;;5014697;28;19921;-71
2021/05/22 04:22:42;;;;;;;6.80;1.42;;;;;;;;;;5013937;28;20117;-72
2021/05/22 04:25:08;;;;;;;3.13;1.00;;;;;;;;;;5013533;28;20030;-71
2021/05/22 04:27:34;;;;;;;5.63;1.33;;;;;;;;;;5014238;28;20076;-71
2021/05/22 04:30:00;;;;;;;8.25;1.35;;;;;;;;;;5014988;28;20042;-72
2021/05/22 04:32:26;;;;;;;;;;;;;;;;;;5013099;28;20037;-70
2021/05/22 04:34:52;;;;;;;16.52;1.88;;;;;;;;;;5013423;28;19967;-71
2021/05/22 04:37:19;;;;;;;9.13;1.35;;;;;;;;;;5011595;28;20044;-81
2021/05/22 04:39:46;;;;;;;7.07;1.55;;;;;;;;;;5011058;28;20045;-70
2021/05/22 04:42:12;;;;;;;7.60;1.33;;;;;;;;;;5009373;28;20141;-72
2021/05/22 04:44:38;;;;;;;11.45;1.40;;;;;;;;;;5006131;28;20112;-72
2021/05/22 04:47:05;;;;;;;9.68;1.92;;;;;;;;;;5008524;28;20398;-71
2021/05/22 04:49:30;;;;;;;;;;;;;;;;;;5006315;28;20467;-71
2021/05/22 04:51:57;;;;;;;7.65;1.35;;;;;;;;;;5003173;28;20445;-70
2021/05/22 04:54:23;;;;;;;8.15;1.20;;;;;;;;;;5012032;28;20048;-72
2021/05/22 04:56:49;;;;;;;12.07;2.13;;;;;;;;;;5012180;28;20057;-71
2021/05/22 04:59:15;;;;;;;10.05;1.83;;;;;;;;;;5012531;28;20037;-71
2021/05/22 05:01:41;;;;;;;8.07;1.60;;;;;;;;;;5011946;28;20041;-72
2021/05/22 05:04:08;;;;;;;7.63;1.65;;;;;;;;;;5013891;28;20092;-70
2021/05/22 05:06:34;;;;;;;12.38;2.10;;;;;;;;;;5012312;28;20038;-71
2021/05/22 05:09:01;;;;;;;7.68;1.80;;;;;;;;;;5012168;28;20109;-70
2021/05/22 05:11:27;;;;;;;14.40;2.30;;;;;;;;;;5025425;28;20618;-72
2021/05/22 05:13:53;;;;;;;6.22;1.50;;;;;;;;;;5032419;28;20049;-70
2021/05/22 05:16:19;;;;;;;9.70;1.83;;;;;;;;;;5031235;28;20048;-72
2021/05/22 05:18:45;;;;;;;11.07;2.25;;;;;;;;;;5031919;28;20034;-72
2021/05/22 05:21:11;;;;;;;;;;;;;;;;;;5032569;28;20405;-70
2021/05/22 05:23:38;;;;;;;10.35;1.65;;;;;;;;;;5032532;28;19932;-70
2021/05/22 05:26:04;;;;;;;5.97;1.67;;;;;;;;;;5033121;28;20045;-70
2021/05/22 05:28:31;;;;;;;7.93;1.80;;;;;;;;;;5019392;28;20045;-71
2021/05/22 05:30:57;;;;;;;6.15;1.38;;;;;;;;;;5011962;28;20449;-71
2021/05/22 05:33:23;;;;;;;5.22;1.20;;;;;;;;;;5012483;28;20517;-71
2021/05/22 05:35:49;;;;;;;5.32;1.17;;;;;;;;;;5011744;28;20093;-71
2021/05/22 05:38:15;;;;;;;;;;;;;;;;;;5012031;28;20549;-72
2021/05/22 05:40:41;;;;;;;7.32;2.40;;;;;;;;;;5020075;28;19917;-71
2021/05/22 05:43:10;;;;;;;9.25;1.67;;;;;;;;;;5030468;28;20041;-70
2021/05/22 05:45:37;;;;;;;8.18;1.40;;;;;;;;;;5030565;28;20033;-71
2021/05/22 05:48:04;;;;;;;7.90;1.85;;;;;;;;;;5031312;28;20068;-72
2021/05/22 05:50:30;;;;;;;5.95;1.30;;;;;;;;;;5032037;28;20056;-72
2021/05/22 05:52:56;;;;;;;;;;;;;;;;;;5032228;28;20048;-71
2021/05/22 05:55:22;;;;;;;12.57;1.65;;;;;;;;;;5032463;28;19965;-71
2021/05/22 05:57:49;;;;;;;11.27;1.77;;;;;;;;;;5018550;28;20054;-71
2021/05/22 06:00:16;;;;;;;14.70;1.60;;;;;;;;;;5011905;28;20038;-73
2021/05/22 06:02:42;;;;;;;7.63;1.73;;;;;;;;;;5011489;28;20107;-71
2021/05/22 06:05:09;;;;;;;8.00;1.95;;;;;;;;;;5012608;28;20044;-72
2021/05/22 06:07:35;;;;;;;5.25;1.60;;;;;;;;;;5011763;28;20046;-73
2021/05/22 06:10:01;;;;;;;;;;;;;;;;;;5021936;28;20044;-70
2021/05/22 06:12:27;;;;;;;9.73;1.40;;;;;;;;;;5024767;28;19920;-70
2021/05/22 06:14:57;;;;;;;8.40;1.17;;;;;;;;;;5031005;28;20034;-71
2021/05/22 06:17:23;;;;;;;6.63;1.50;;;;;;;;;;5030493;28;20717;-72
2021/05/22 06:19:49;;;;;;;7.82;1.45;;;;;;;;;;5031446;28;20084;-73
2021/05/22 06:22:15;;;;;;;10.73;1.83;;;;;;;;;;5031504;28;20052;-71
2021/05/22 06:24:42;;;;;;;8.77;1.35;;;;;;;;;;5031748;28;20044;-70
2021/05/22 06:27:08;;;;;;;;;;;;;;;;;;5032475;28;20045;-68
2021/05/22 06:29:34;;;;;;;5.65;2.08;;;;;;;;;;5031474;28;20047;-69
2021/05/22 06:32:00;;;;;;;6.50;1.70;;;;;;;;;;5027968;28;20041;-70
2021/05/22 06:34:26;;;;;;;;;;;;;;;;;;5010862;28;20045;-71
2021/05/22 06:36:54;;;;;;;7.53;1.45;;;;;;;;;;5027525;28;19927;-70
2021/05/22 06:39:21;;;;;;;7.18;1.42;;;;;;;;;;5008097;28;20038;-69
2021/05/22 06:41:47;;;;;;;4.05;1.20;;;;;;;;;;5031490;28;20132;-69
2021/05/22 06:44:21;;;;;;;5.60;1.42;;;;;;;;;;5010375;28;20100;-70
2021/05/22 06:46:48;;;;;;;8.57;1.10;;;;;;;;;;5009950;28;20042;-70
2021/05/22 06:49:14;;;;;;;4.55;1.15;;;;;;;;;;5011235;28;20045;-70
2021/05/22 06:51:41;;;;;;;5.55;1.17;;;;;;;;;;5010871;28;20038;-70
2021/05/22 06:54:07;;;;;;;7.75;1.58;;;;;;;;;;5010349;28;20044;-69
2021/05/22 06:56:33;;;;;;;;;;;;;;;;;;5001673;28;20042;-72
2021/05/22 06:58:59;;;;;;;9.30;2.58;;;;;;;;;;4996712;28;19921;-67
2021/05/22 07:01:26;;;;;;;5.30;1.50;;;;;;;;;;5008751;28;20041;-71
2021/05/22 07:03:53;;;;;;;4.50;1.27;;;;;;;;;;5006501;28;20085;-71
2021/05/22 07:06:21;;;;;;;10.82;1.73;;;;;;;;;;5010221;28;20040;-70
2021/05/22 07:08:47;;;;;;;5.85;0.93;;;;;;;;;;5005773;28;20173;-69
2021/05/22 07:11:14;;;;;;;;;;;;;;;;;;5014757;28;20152;-69
2021/05/22 07:13:40;;;;;;;7.72;1.23;;;;;;;;;;5000017;28;19924;-69
2021/05/22 07:16:06;;;;;;;6.25;1.48;;;;;;;;;;5010922;28;20038;-70
2021/05/22 07:18:32;;;;;;;;;;;;;;;;;;5009373;28;20049;-68
2021/05/22 07:20:58;;;;;;;5.55;1.02;;;;;;;;;;5004831;28;20430;-70
2021/05/22 07:23:24;;;;;;;;;;;;;;;;;;5009343;28;20047;-69
2021/05/22 07:25:50;;;;;;;3.40;1.00;;;;;;;;;;5005048;28;20000;-70
2021/05/22 07:28:16;;;;;;;3.55;0.85;;;;;;;;;;5009202;28;20049;-72
2021/05/22 07:30:42;;;;;;;3.10;1.08;;;;;;;;;;5006543;28;20038;-70
2021/05/22 07:33:08;;;;;;;;;;;;;;;;;;5008019;28;20037;-70
2021/05/22 07:35:35;;;;;;;;;;;;;;;;;;5009301;28;19917;-70
2021/05/22 07:38:01;;;;;;;2.78;0.98;;;;;;;;;;4998839;28;19944;-70
2021/05/22 07:40:28;;;;;;;;;;;;;;;;;;5010411;28;20096;-69
2021/05/22 07:42:54;;;;;;;2.37;0.83;;;;;;;;;;5008915;28;19924;-70
2021/05/22 07:45:23;;;;;;;3.22;1.08;;;;;;;;;;5001735;28;20042;-71
2021/05/22 07:47:49;;;;;;;2.30;0.88;;;;;;;;;;5003013;28;20042;-71
2021/05/22 07:50:15;;;;;;;3.67;1.25;;;;;;;;;;5011505;28;20042;-71
2021/05/22 07:52:43;;;;;;;8.77;2.05;;;;;;;;;;5011327;28;20042;-70
2021/05/22 07:55:10;;;;;;;3.85;0.70;;;;;;;;;;5006918;28;20043;-69
2021/05/22 07:57:36;;;;;;;7.82;0.82;;;;;;;;;;5010698;28;20038;-72
2021/05/22 08:00:04;;;;;;;9.35;0.90;;;;;;;;;;5010600;28;20057;-72
2021/05/22 08:02:31;;;;;;;1.63;0.70;;;;;;;;;;5009407;28;20162;-69
2021/05/22 08:04:57;;;;;;;;;;;;;;;;;;5011798;28;20120;-71
2021/05/22 08:07:23;;;;;;;5.63;1.48;;;;;;;;;;5010438;28;20274;-70
2021/05/22 08:09:49;;;;;;;3.88;0.73;;;;;;;;;;5018046;28;20037;-70
2021/05/22 08:12:15;;;;;;;4.40;0.88;;;;;;;;;;5021148;28;20133;-70
2021/05/22 08:14:41;;;;;;;;;;;;;;;;;;5022252;28;20129;-71
2021/05/22 08:17:08;;;;;;;2.70;0.65;;;;;;;;;;5008030;28;19968;-72
2021/05/22 08:19:34;;;;;;;3.90;0.90;;;;;;;;;;5009954;28;20045;-71
2021/05/22 08:22:00;;;;;;;7.00;0.85;;;;;;;;;;5009534;28;20052;-69
2021/05/22 08:24:26;;;;;;;;;;;;;;;;;;5009998;28;20113;-71
2021/05/22 08:26:52;;;;;;;0.83;0.50;;;;;;;;;;5011298;28;19972;-72
2021/05/22 08:29:18;;;;;;;8.23;0.90;;;;;;;;;;5009738;28;20272;-71
2021/05/22 08:31:44;;;;;;;3.05;0.60;;;;;;;;;;5011156;28;20034;-72
2021/05/22 08:34:10;;;;;;;7.57;2.30;;;;;;;;;;5013542;28;20395;-70
2021/05/22 08:36:36;;;;;;;4.18;0.70;;;;;;;;;;5013591;28;20042;-70
2021/05/22 08:39:03;;;;;;;2.53;0.57;;;;;;;;;;5012684;28;20049;-71
2021/05/22 08:41:30;;;;;;;2.75;0.85;;;;;;;;;;5020822;28;20046;-71
2021/05/22 08:43:56;;;;;;;3.72;1.73;;;;;;;;;;5013210;28;20056;-71
2021/05/22 08:46:24;;;;;;;3.08;0.98;;;;;;;;;;5012202;28;20034;-71
2021/05/22 08:48:50;;;;;;;3.63;0.50;;;;;;;;;;5012807;28;20041;-72
2021/05/22 08:51:18;;;;;;;;;;;;;;;;;;5013415;28;20433;-70
2021/05/22 08:53:45;;;;;;;6.13;1.10;;;;;;;;;;5013034;28;20004;-69
2021/05/22 08:56:11;;;;;;;3.33;0.73;;;;;;;;;;5012427;28;20048;-69
2021/05/22 08:58:37;;;;;;;3.72;1.10;;;;;;;;;;5012685;28;20053;-71
2021/05/22 09:01:04;;;;;;;2.45;0.57;;;;;;;;;;5014460;28;20121;-69
2021/05/22 09:03:31;;;;;;;3.53;0.80;;;;;;;;;;5012226;28;20042;-69
2021/05/22 09:05:57;;;;;;;;;;;;;;;;;;5012877;28;20045;-69
2021/05/22 09:08:23;;;;;;;2.42;0.50;;;;;;;;;;5013023;28;19963;-70
2021/05/22 09:10:50;;;;;;;5.15;0.80;;;;;;;;;;5020761;28;20049;-69
2021/05/22 09:13:22;;;;;;;2.38;0.60;;;;;;;;;;5021523;28;20057;-70
2021/05/22 09:15:51;;;;;;;1.27;0.75;;;;;;;;;;5012061;28;20048;-69
2021/05/22 09:18:18;;;;;;;5.22;1.52;;;;;;;;;;5012390;28;20181;-71
2021/05/22 09:20:50;;;;;;;2.55;0.80;;;;;;;;;;5013260;28;20038;-70
2021/05/22 09:23:17;;;;;;;2.70;1.05;;;;;;;;;;5012809;28;20046;-69
2021/05/22 09:25:45;;;;;;;5.53;1.35;;;;;;;;;;5012679;28;20052;-72
2021/05/22 09:28:13;;;;;;;1.33;0.47;;;;;;;;;;5012328;28;20071;-71
2021/05/22 09:30:39;;;;;;;2.92;0.70;;;;;;;;;;5012772;28;20038;-70
2021/05/22 09:33:11;;;;;;;1.48;0.50;;;;;;;;;;5014349;28;20036;-71
2021/05/22 09:35:37;;;;;;;4.30;0.85;;;;;;;;;;5012767;28;20104;-72
2021/05/22 09:38:03;;;;;;;;;;;;;;;;;;5012777;28;20702;-71
2021/05/22 09:40:30;;;;;;;2.60;0.80;;;;;;;;;;5034177;28;19916;-70
2021/05/22 09:42:58;;;;;;;3.85;1.05;;;;;;;;;;5015214;28;20038;-72
2021/05/22 09:45:33;;;;;;;1.38;0.65;;;;;;;;;;5011686;28;20041;-71
2021/05/22 09:48:00;;;;;;;2.03;0.40;;;;;;;;;;5012244;28;20045;-71
2021/05/22 09:50:26;;;;;;;1.65;0.40;;;;;;;;;;5012179;28;20042;-72
2021/05/22 09:52:52;;;;;;;;;;;;;;;;;;5011912;28;20041;-69
2021/05/22 09:55:20;;;;;;;3.38;0.50;;;;;;;;;;5011660;28;19964;-71
2021/05/22 09:57:46;;;;;;;9.68;3.08;;;;;;;;;;5011745;28;20085;-72
2021/05/22 10:00:15;;;;;;;4.20;1.73;;;;;;;;;;5011401;28;20045;-70
2021/05/22 10:02:54;;;;;;;0.55;0.45;;;;;;;;;;5010755;28;20038;-70
2021/05/22 10:05:29;;;;;;;5.47;0.95;;;;;;;;;;5011873;28;20034;-71
2021/05/22 10:07:56;;;;;;;1.67;0.75;;;;;;;;;;5011348;28;20129;-71
2021/05/22 10:10:24;;;;;;;3.00;0.80;;;;;;;;;;5019703;28;20121;-71
2021/05/22 10:12:51;;;;;;;0.77;0.30;;;;;;;;;;5013023;28;20045;-71
2021/05/22 10:15:18;;;;;;;1.65;0.40;;;;;;;;;;5010884;28;20053;-71
2021/05/22 10:17:45;;;;;;;2.72;0.50;;;;;;;;;;5011154;28;20052;-71
2021/05/22 10:20:12;;;;;;;1.27;0.30;;;;;;;;;;5011601;28;20041;-71
2021/05/22 10:22:43;;;;;;;1.60;0.50;;;;;;;;;;5011407;28;20038;-70
2021/05/22 10:25:09;;;;;;;2.35;0.73;;;;;;;;;;5010800;28;20506;-72
2021/05/22 10:27:36;;;;;;;1.13;0.40;;;;;;;;;;5011573;28;20042;-72
2021/05/22 10:30:04;;;;;;;2.17;0.50;;;;;;;;;;5011165;28;20046;-71
2021/05/22 10:32:31;;;;;;;0.45;0.35;;;;;;;;;;5009950;28;20038;-71
2021/05/22 10:34:57;;;;;;;2.22;0.40;;;;;;;;;;5012587;28;20515;-75
2021/05/22 10:37:36;;;;;;;1.85;0.50;;;;;;;;;;5011449;28;20096;-74
2021/05/22 10:40:02;;;;;;;1.13;0.60;;;;;;;;;;5013801;28;20041;-70
2021/05/22 10:42:29;;;;;;;1.27;0.30;;;;;;;;;;5011095;28;20394;-71
2021/05/22 10:44:56;;;;;;;0.52;0.40;;;;;;;;;;5010546;28;20120;-71
2021/05/22 10:47:27;;;;;;;0.73;0.47;;;;;;;;;;5009824;28;20064;-70
2021/05/22 10:49:54;;;;;;;2.20;0.52;;;;;;;;;;5010126;28;20041;-72
2021/05/22 10:52:25;;;;;;;1.30;0.50;;;;;;;;;;5021812;28;20048;-71
2021/05/22 10:55:04;;;;;;;3.25;0.68;;;;;;;;;;5008913;28;20042;-72
2021/05/22 10:57:32;;;;;;;1.55;0.30;;;;;;;;;;5019057;28;20048;-72
2021/05/22 11:00:14;;;;;;;1.58;0.55;;;;;;;;;;5010775;28;20045;-71
2021/05/22 11:02:42;;;;;;;1.23;0.40;;;;;;;;;;5002897;28;20495;-72
2021/05/22 11:05:31;;;;;;;1.52;0.38;;;;;;;;;;5013051;28;20041;-70
2021/05/22 11:08:04;;;;;;;3.00;0.55;;;;;;;;;;5006515;28;20054;-72
2021/05/22 11:10:40;;;;;;;2.65;0.70;;;;;;;;;;5008255;28;20113;-71
2021/05/22 11:13:07;;;;;;;0.77;0.47;;;;;;;;;;5006165;28;20042;-71
2021/05/22 11:15:55;;;;;;;2.63;0.55;;;;;;;;;;5007797;28;20066;-73
2021/05/22 11:18:53;;;;;;;1.13;0.38;;;;;;;;;;5008256;28;20169;-73
2021/05/22 11:32:02;;;;;;;0.98;0.50;;;10.90;99.90;;;;;;5074084;27;20374;-59
2021/05/22 11:34:28;;;;;;;;;;;10.90;99.90;;;;;;5080953;28;20423;-59
2021/05/22 11:37:12;;;;;;;0.93;0.40;;;10.90;99.90;;;;;;5082330;28;19956;-56
2021/05/22 11:39:40;;;;;;;2.75;0.80;;;10.90;99.90;;;;;;5085489;28;20028;-56
2021/05/22 11:42:27;;;;;;;0.57;0.30;;;10.90;99.90;;;;;;5084818;28;20090;-58
2021/05/22 11:44:57;;;;;;;0.75;0.40;;;10.90;99.90;;;;;;5085354;28;20063;-52
2021/05/22 11:47:28;;;;;;;1.40;0.30;;;10.90;99.90;;;;;;5084851;28;20043;-56
2021/05/22 11:49:54;;;;;;;1.77;0.40;;;10.90;99.90;;;;;;5085683;28;20055;-59
2021/05/22 11:52:32;;;;;;;;;;;10.90;99.90;;;;;;5086473;28;20044;-60
2021/05/22 11:54:59;;;;;;;3.60;0.40;;;11.00;99.90;;;;;;5083783;28;20003;-60
2021/05/22 11:57:25;;;;;;;3.05;0.55;;;11.00;99.90;;;;;;5084596;28;20028;-58
2021/05/22 11:59:51;;;;;;;;;;;11.10;99.90;;;;;;5086826;28;20618;-59
2021/05/22 12:02:39;;;;;;;1.17;0.40;;;11.10;99.90;;;;;;5084682;28;19916;-59
2021/05/22 12:05:07;;;;;;;1.65;0.40;;;11.00;99.90;;;;;;5087368;28;20059;-59
2021/05/22 12:07:56;;;;;;;1.48;0.57;;;11.00;99.90;;;;;;5071428;28;20041;-58
2021/05/22 12:10:29;;;;;;;2.78;0.38;;;11.20;99.90;;;;;;5076651;28;20132;-60
2021/05/22 12:13:02;;;;;;;5.78;2.75;;;11.00;99.90;;;;;;5079572;28;20526;-58
2021/05/22 12:15:29;;;;;;;1.08;0.50;;;11.00;99.90;;;;;;5075206;28;20353;-56
2021/05/22 12:18:02;;;;;;;0.30;0.28;;;10.90;99.90;;;;;;5074407;28;20123;-59
2021/05/22 12:20:28;;;;;;;1.48;0.35;;;10.80;99.90;;;;;;5072366;28;20497;-61
2021/05/22 12:22:54;;;;;;;;;;;10.90;99.90;;;;;;5065084;28;20037;-59
2021/05/22 12:25:20;;;;;;;1.52;0.60;;;11.10;99.90;;;;;;5064243;28;19982;-59
2021/05/22 12:27:46;;;;;;;1.55;0.50;;;11.00;99.90;;;;;;5065131;28;20056;-59
2021/05/22 12:30:12;;;;;;;;;;;10.90;99.90;;;;;;5064343;28;20045;-57
2021/05/22 12:32:38;;;;;;;4.38;0.63;;;11.00;99.90;;;;;;5071072;28;19916;-57
2021/05/22 12:35:06;;;;;;;;;;;11.10;99.90;;;;;;5085080;28;20044;-56
2021/05/22 12:37:32;;;;;;;1.42;0.70;;;11.10;99.90;;;;;;5079276;28;19927;-58
2021/05/22 12:39:59;;;;;;;;;;;11.20;99.90;;;;;;5074177;28;20045;-59
2021/05/22 12:42:32;;;;;;;;;;;11.10;99.90;;;;;;5077020;28;19916;-59
2021/05/22 12:45:09;;;;;;;5.20;1.95;;;11.00;99.90;;;;;;5070271;28;19920;-60
2021/05/22 12:47:42;;;;;;;1.77;0.70;;;11.20;99.90;;;;;;5070195;28;20125;-57
2021/05/22 12:50:10;;;;;;;2.42;0.60;;;11.30;99.90;;;;;;5071478;28;20044;-60
2021/05/22 12:52:53;;;;;;;4.57;0.75;;;11.40;99.90;;;;;;5071326;28;20155;-59
2021/05/22 12:55:23;;;;;;;2.03;0.70;;;11.40;99.90;;;;;;5070628;28;20036;-60
2021/05/22 12:57:49;;;;;;;1.83;0.52;;;11.60;99.90;;;;;;5071379;28;20047;-59
2021/05/22 13:00:15;;;;;;;;;;;11.60;99.90;;;;;;5070892;28;20048;-57
2021/05/22 13:02:55;;;;;;;3.13;0.70;;;11.70;99.90;;;;;;5050381;28;19921;-61
2021/05/22 13:05:23;;;;;;;3.20;0.45;;;11.80;99.90;;;;;;5049852;28;20101;-61
2021/05/22 13:07:50;;;;;;;1.98;0.60;;;11.70;99.90;;;;;;5050590;28;20044;-60
2021/05/22 13:10:18;;;;;;;2.30;0.65;;;11.80;99.90;;;;;;5049954;28;20072;-58
2021/05/22 13:13:08;;;;;;;2.83;0.68;;;11.80;99.90;;;;;;5050569;28;20094;-60
2021/05/22 13:15:36;;;;;;;3.70;0.80;;;12.00;99.60;;;;;;5044795;28;20820;-60
2021/05/22 13:18:07;;;;;;;3.95;1.13;;;12.10;99.20;;;;;;5048652;28;20049;-60
2021/05/22 13:20:36;;;;;;;5.20;0.90;;;12.00;99.70;;;;;;5050166;28;20048;-61
2021/05/22 13:23:09;;;;;;;6.22;0.75;;;12.00;99.40;;;;;;5045359;28;20806;-61
2021/05/22 13:25:35;;;;;;;1.50;0.57;;;12.10;99.00;;;;;;5050212;28;20049;-60
2021/05/22 13:28:03;;;;;;;;;;;12.10;99.50;;;;;;5033974;28;20052;-58
2021/05/22 13:30:34;;;;;;;2.03;0.63;;;12.00;99.90;;;;;;5028692;28;19928;-53
2021/05/22 13:33:00;;;;;;;6.50;1.30;;;11.80;99.90;;;;;;5039745;28;20047;-59
2021/05/22 13:35:28;;;;;;;5.82;0.80;;;11.60;99.90;;;;;;5049630;28;20047;-60
2021/05/22 13:37:55;;;;;;;4.97;1.23;;;11.60;99.90;;;;;;5050163;28;20103;-58
2021/05/22 13:40:25;;;;;;;6.30;1.15;;;11.50;99.90;;;;;;5049357;28;20064;-57
2021/05/22 13:42:50;;;;;;;2.90;1.05;;;11.60;99.90;;;;;;5050386;28;20049;-59
2021/05/22 13:45:16;;;;;;;;;;;11.50;99.90;;;;;;5049100;28;20416;-58
2021/05/22 13:47:42;;;;;;;5.82;0.90;;;11.50;99.90;;;;;;5069258;28;19920;-59
2021/05/22 13:50:09;;;;;;;4.10;1.00;;;11.30;99.90;;;;;;5070318;28;20090;-60
2021/05/22 13:52:35;;;;;;;5.93;1.35;;;11.30;99.90;;;;;;5051784;28;20052;-60
2021/05/22 13:55:01;;;;;;;6.25;1.10;;;11.20;99.90;;;;;;5068224;28;20075;-60
2021/05/22 13:57:27;;;;;;;3.97;1.13;;;11.00;99.90;;;;;;5069604;28;20064;-60
2021/05/22 13:59:52;;;;;;;;;;;11.00;99.90;;;;;;5070354;28;20036;-60
2021/05/22 14:02:18;;;;;;;3.13;0.82;;;11.00;99.90;;;;;;5051229;28;19917;-57
2021/05/22 14:04:43;;;;;;;;;;;11.00;99.90;;;;;;5050893;28;20409;-59
2021/05/22 14:07:09;;;;;;;4.90;1.38;;;11.10;99.90;;;;;;5039479;28;20000;-61
2021/05/22 14:09:34;;;;;;;;;;;11.10;99.90;;;;;;5036277;28;20616;-59
2021/05/22 14:11:59;;;;;;;5.05;1.08;;;11.20;99.90;;;;;;5049264;28;19979;-60
2021/05/22 14:14:25;;;;;;;;;;;11.20;99.90;;;;;;5046965;28;20094;-59
2021/05/22 14:16:51;;;;;;;5.90;1.05;;;11.20;99.90;;;;;;5077579;28;19928;-60
2021/05/22 14:19:16;;;;;;;;;;;11.20;99.90;;;;;;5089951;28;20757;-58
2021/05/22 14:21:42;;;;;;;2.88;1.10;;;11.20;99.90;;;;;;5088417;28;19916;-59
2021/05/22 14:24:07;;;;;;;;;;;11.30;99.90;;;;;;5088727;28;20083;-57
2021/05/22 14:26:34;;;;;;;5.05;2.22;;;11.20;99.90;;;;;;5089585;28;20011;-59
2021/05/22 14:28:59;;;;;;;8.82;1.23;;;11.20;99.90;;;;;;5088927;28;20404;-58
2021/05/22 14:31:25;;;;;;;;;;;11.20;99.90;;;;;;5089095;28;20527;-58
2021/05/22 14:33:50;;;;;;;4.47;1.10;;;11.30;99.90;;;;;;5088193;28;19946;-59
2021/05/22 14:36:16;;;;;;;;;;;11.40;99.90;;;;;;5081939;28;20032;-58
2021/05/22 14:38:41;;;;;;;9.55;1.20;;;11.30;99.90;;;;;;5068002;28;20496;-60
2021/05/22 14:41:07;;;;;;;;;;;11.30;99.90;;;;;;5074167;28;20119;-59
2021/05/22 14:43:33;;;;;;;3.83;0.90;;;11.30;99.90;;;;;;5068109;28;19916;-60